Time;durP1;ratioP1;P1;durP2;ratioP2;P2;SDS_P1;SDS_P2;PMS_P1;PMS_P2;Temp;Humidity;BMP_temperature;BMP_pressure;BME280_temperature;BME280_humidity;BME280_pressure;Samples;Min_cycle;Max_cycle;Signal;HPM_P1;HPM_P2
2021/05/13 00:01:13;;;;;;;7.78;4.43;;;;;;;12.73;68.17;99975.06;4424942;32;20625;-76
2021/05/13 00:03:39;;;;;;;5.72;3.97;;;;;;;12.66;68.58;99967.69;4425297;32;20614;-75
2021/05/13 00:06:05;;;;;;;7.50;3.80;;;;;;;12.59;68.95;99968.03;4413450;32;20436;-76
2021/05/13 00:08:31;;;;;;;6.65;4.37;;;;;;;12.54;69.07;99971.47;4428141;32;20069;-75
2021/05/13 00:11:05;;;;;;;9.40;4.70;;;;;;;12.50;69.18;99959.56;4427972;32;20062;-76
2021/05/13 00:13:34;;;;;;;8.60;4.57;;;;;;;12.45;69.26;99971.47;4424903;32;20094;-75
2021/05/13 00:16:01;;;;;;;12.52;4.87;;;;;;;12.40;69.26;99960.81;4426740;32;20037;-75
2021/05/13 00:18:28;;;;;;;8.40;4.55;;;;;;;12.15;70.52;99963.91;4425388;32;20406;-75
2021/05/13 00:20:54;;;;;;;8.07;4.37;;;;;;;12.13;70.54;99962.81;4425416;32;20336;-75
2021/05/13 00:23:21;;;;;;;8.70;4.97;;;;;;;12.08;70.76;99959.38;4428100;32;20160;-75
2021/05/13 00:25:49;;;;;;;8.13;4.87;;;;;;;11.90;71.26;99964.97;4425160;32;20658;-75
2021/05/13 00:28:18;;;;;;;9.90;4.20;;;;;;;11.80;71.91;99966.19;4424435;32;20084;-76
2021/05/13 00:30:43;;;;;;;8.00;4.60;;;;;;;11.82;72.18;99962.91;4426029;32;20056;-75
2021/05/13 00:33:10;;;;;;;7.95;4.62;;;;;;;11.78;72.37;99971.50;4412888;32;20425;-76
2021/05/13 00:35:36;;;;;;;7.93;4.80;;;;;;;11.77;72.46;99964.31;4426088;32;20046;-77
2021/05/13 00:38:03;;;;;;;8.90;5.03;;;;;;;11.72;72.75;99966.97;4426407;32;20292;-75
2021/05/13 00:40:29;;;;;;;9.55;4.93;;;;;;;11.69;73.03;99956.63;4427230;32;20448;-76
2021/05/13 00:42:56;;;;;;;8.98;5.10;;;;;;;11.71;72.78;99957.72;4427896;32;20063;-75
2021/05/13 00:45:22;;;;;;;10.75;5.70;;;;;;;11.75;72.52;99958.34;4426058;32;20086;-78
2021/05/13 00:48:06;;;;;;;16.15;5.68;;;;;;;11.67;73.19;99959.09;4427146;32;20392;-75
2021/05/13 00:50:34;;;;;;;11.70;5.50;;;;;;;11.69;73.54;99956.63;4424096;32;20069;-75
2021/05/13 00:53:05;;;;;;;9.40;5.95;;;;;;;11.76;73.29;99959.12;4426185;32;20082;-76
2021/05/13 00:55:32;;;;;;;12.80;6.55;;;;;;;11.72;73.68;99956.44;4424893;32;20076;-75
2021/05/13 00:57:57;;;;;;;11.40;7.05;;;;;;;11.66;74.16;99958.31;4425531;32;20084;-76
2021/05/13 01:03:09;;;;;;;16.55;7.40;;;;;;;11.56;74.67;99945.41;4423778;32;20114;-75
2021/05/13 01:05:37;;;;;;;12.07;6.78;;;;;;;11.46;74.93;99952.28;4425173;32;20725;-76
2021/05/13 01:08:04;;;;;;;10.75;6.03;;;;;;;11.47;74.80;99942.56;4425758;32;20037;-76
2021/05/13 01:10:30;;;;;;;13.93;6.53;;;;;;;11.42;75.15;99945.22;4425833;32;20041;-75
2021/05/13 01:13:02;;;;;;;10.57;5.60;;;;;;;11.45;75.12;99947.09;4425469;32;20138;-75
2021/05/13 01:15:38;;;;;;;11.10;6.18;;;;;;;11.46;74.90;99938.19;4426119;32;20077;-75
2021/05/13 01:20:42;;;;;;;10.40;5.68;;;;;;;11.85;73.98;99947.87;3980907;32;15164884;-75
2021/05/13 01:23:11;;;;;;;10.35;6.00;;;;;;;11.85;73.98;99947.87;4433650;32;20059;-75
2021/05/13 01:25:48;;;;;;;11.48;6.50;;;;;;;11.47;74.81;99947.41;4435442;32;21175;-75
2021/05/13 01:28:14;;;;;;;9.80;5.85;;;;;;;11.50;75.13;99949.28;4433376;32;20059;-75
2021/05/13 01:30:43;;;;;;;11.35;6.72;;;;;;;11.53;74.92;99948.37;4432476;32;20069;-75
2021/05/13 01:33:10;;;;;;;12.68;5.62;;;;;;;11.42;75.69;99950.84;4434138;32;20072;-76
2021/05/13 01:35:37;;;;;;;11.38;6.10;;;;;;;11.62;74.88;99948.44;4435803;32;20064;-75
2021/05/13 01:38:06;;;;;;;11.38;5.87;;;;;;;11.67;74.67;99939.37;4437237;32;20119;-75
2021/05/13 01:40:32;;;;;;;12.48;6.00;;;;;;;11.76;74.07;99947.87;4433540;32;20176;-76
2021/05/13 01:42:58;;;;;;;11.85;6.57;;;;;;;11.72;74.00;99942.34;4434824;32;20463;-75
2021/05/13 01:45:24;;;;;;;13.65;5.82;;;;;;;11.77;73.71;99938.16;4435720;32;20452;-76
2021/05/13 01:47:49;;;;;;;11.75;5.87;;;;;;;11.77;73.55;99938.94;4434650;32;20038;-75
2021/05/13 01:50:15;;;;;;;10.13;5.95;;;;;;;11.74;73.32;99941.91;4433288;32;20133;-75
2021/05/13 01:52:41;;;;;;;10.10;5.68;;;;;;;11.77;73.05;99941.75;4433882;32;20060;-75
2021/05/13 01:55:07;;;;;;;9.93;5.87;;;;;;;11.76;72.90;99939.41;4436221;32;20059;-75
2021/05/13 01:57:33;;;;;;;8.00;5.50;;;;;;;11.75;72.95;99932.19;4432601;32;20481;-76
2021/05/13 01:59:59;;;;;;;8.68;5.28;;;;;;;11.78;72.22;99939.72;4434772;32;20108;-76
2021/05/13 02:02:24;;;;;;;12.18;5.00;;;;;;;11.81;71.74;99933.94;4427442;32;20029;-76
2021/05/13 02:04:50;;;;;;;12.23;5.72;;;;;;;11.87;71.10;99939.72;4425665;32;20470;-75
2021/05/13 02:07:15;;;;;;;11.82;5.22;;;;;;;11.88;71.13;99941.31;4424880;32;20484;-75
2021/05/13 02:09:42;;;;;;;10.38;5.72;;;;;;;11.88;71.14;99933.63;4424119;32;20446;-75
2021/05/13 02:12:08;;;;;;;9.88;6.07;;;;;;;11.91;70.88;99929.88;4424869;32;20426;-75
2021/05/13 02:14:34;;;;;;;9.77;5.97;;;;;;;11.93;70.67;99938.66;4424062;32;20076;-76
2021/05/13 02:16:59;;;;;;;9.63;5.78;;;;;;;11.97;69.65;99944.16;4422184;32;20099;-75
2021/05/13 02:19:26;;;;;;;8.23;5.72;;;;;;;11.84;70.60;99937.84;4425304;32;20188;-75
2021/05/13 02:21:52;;;;;;;14.13;6.35;;;;;;;11.81;70.95;99938.78;4425296;32;20104;-75
2021/05/13 02:24:17;;;;;;;10.73;6.28;;;;;;;11.89;70.24;99932.41;4425602;32;20042;-75
2021/05/13 02:26:43;;;;;;;9.45;6.22;;;;;;;11.91;69.84;99934.75;4426326;32;20370;-75
2021/05/13 02:29:09;;;;;;;10.27;6.90;;;;;;;11.91;69.80;99932.69;4423320;32;20433;-75
2021/05/13 02:31:34;;;;;;;11.95;6.30;;;;;;;11.91;69.62;99938.31;4416327;32;20386;-75
2021/05/13 02:34:00;;;;;;;11.35;6.62;;;;;;;11.93;69.50;99938.66;4414847;32;20403;-76
2021/05/13 02:36:26;;;;;;;13.10;6.95;;;;;;;11.87;69.88;99942.56;4414833;32;20081;-75
2021/05/13 02:38:52;;;;;;;10.77;6.68;;;;;;;11.87;69.75;99939.72;4409522;32;20411;-75
2021/05/13 02:41:18;;;;;;;17.25;7.05;;;;;;;11.83;69.90;99934.25;4413901;32;20081;-75
2021/05/13 02:43:44;;;;;;;12.40;6.95;;;;;;;11.81;69.75;99930.31;4412496;32;20457;-75
2021/05/13 02:46:09;;;;;;;10.93;7.32;;;;;;;11.72;70.02;99931.09;4412710;32;20077;-75
2021/05/13 02:48:35;;;;;;;10.75;6.68;;;;;;;11.76;69.96;99934.53;4405536;32;20038;-75
2021/05/13 02:51:01;;;;;;;10.82;6.78;;;;;;;11.78;69.98;99934.06;4415077;32;20060;-75
2021/05/13 02:53:27;;;;;;;12.23;7.20;;;;;;;11.65;70.43;99928.56;4414980;32;20397;-75
2021/05/13 02:55:52;;;;;;;12.93;7.85;;;;;;;11.70;70.33;99927.19;4413667;32;20370;-75
2021/05/13 02:58:18;;;;;;;10.65;6.43;;;;;;;11.66;70.63;99932.19;4412945;32;20404;-75
2021/05/13 03:03:29;;;;;;;13.95;7.25;;;;;;;11.69;70.47;99939.72;4413467;32;20050;-75
2021/05/13 03:05:55;;;;;;;12.68;7.22;;;;;;;11.76;69.87;99937.34;4413700;32;20094;-75
2021/05/13 03:08:22;;;;;;;13.32;7.93;;;;;;;11.85;69.77;99937.38;4411807;32;20029;-76
2021/05/13 03:10:47;;;;;;;12.25;7.68;;;;;;;11.85;69.92;99940.19;4414967;32;20370;-75
2021/05/13 03:13:21;;;;;;;14.18;9.13;;;;;;;11.86;69.86;99943.81;4413435;32;20050;-76
2021/05/13 03:15:46;;;;;;;14.23;9.30;;;;;;;11.88;69.97;99935.69;4413604;32;20077;-75
2021/05/13 03:18:12;;;;;;;15.40;9.00;;;;;;;11.92;69.75;99936.31;4413598;32;20434;-75
2021/05/13 03:20:41;;;;;;;13.75;8.80;;;;;;;11.93;69.48;99933.03;4414254;32;20120;-75
2021/05/13 03:23:11;;;;;;;15.20;9.50;;;;;;;11.95;69.62;99929.72;4406244;32;20117;-75
2021/05/13 03:25:39;;;;;;;13.50;8.77;;;;;;;12.01;69.53;99937.12;4412525;32;20030;-75
2021/05/13 03:28:07;;;;;;;13.45;8.75;;;;;;;11.97;69.63;99927.25;4414660;32;20058;-75
2021/05/13 03:33:13;;;;;;;14.63;9.40;;;;;;;12.51;68.27;99932.09;3984867;32;15022250;-75
2021/05/13 03:35:39;;;;;;;17.87;9.52;;;;;;;12.51;68.27;99932.09;4438236;32;20016;-75
2021/05/13 03:38:07;;;;;;;15.25;9.65;;;;;;;11.95;69.70;99929.72;4436005;32;20046;-76
2021/05/13 03:40:33;;;;;;;16.35;9.52;;;;;;;12.07;69.25;99928.81;4438902;32;21044;-75
2021/05/13 03:43:00;;;;;;;16.17;8.93;;;;;;;12.08;68.88;99931.16;4441450;32;20077;-75
2021/05/13 03:45:25;;;;;;;14.70;10.25;;;;;;;12.13;69.04;99934.59;4438776;32;20166;-75
2021/05/13 03:47:51;;;;;;;17.65;10.40;;;;;;;12.13;68.99;99931.78;4439621;32;20065;-75
2021/05/13 03:50:17;;;;;;;16.73;9.60;;;;;;;12.13;69.18;99938.22;4438823;32;20068;-75
2021/05/13 03:52:43;;;;;;;18.77;10.60;;;;;;;12.17;68.99;99923.94;4436238;32;20597;-75
2021/05/13 03:55:10;;;;;;;17.30;10.57;;;;;;;12.19;68.75;99933.53;4437747;32;20506;-75
2021/05/13 03:57:36;;;;;;;16.67;10.80;;;;;;;12.17;68.77;99936.03;4439303;32;20098;-75
2021/05/13 04:00:09;;;;;;;18.35;10.82;;;;;;;12.17;68.50;99927.56;4439459;32;20177;-75
2021/05/13 04:02:34;;;;;;;22.08;11.65;;;;;;;12.21;68.23;99936.66;4425772;32;20269;-76
2021/05/13 04:05:02;;;;;;;21.45;11.48;;;;;;;12.19;68.12;99936.34;4420905;32;20173;-75
2021/05/13 04:07:30;;;;;;;19.35;10.80;;;;;;;12.18;68.27;99934.75;4420073;32;20144;-75
2021/05/13 04:09:57;;;;;;;17.10;11.07;;;;;;;12.29;67.78;99931.47;4422601;32;20054;-76
2021/05/13 04:12:24;;;;;;;17.55;11.32;;;;;;;12.27;67.79;99931.94;4422361;32;20119;-75
2021/05/13 04:14:50;;;;;;;19.08;12.32;;;;;;;12.23;68.01;99925.69;4422942;32;20109;-76
2021/05/13 04:17:16;;;;;;;22.35;11.88;;;;;;;12.25;68.36;99928.03;4421001;32;20459;-75
2021/05/13 04:19:42;;;;;;;19.83;12.93;;;;;;;12.25;68.37;99934.47;4423925;32;20426;-76
2021/05/13 04:22:08;;;;;;;21.15;12.57;;;;;;;12.32;68.29;99928.50;4421070;32;20396;-76
2021/05/13 04:24:34;;;;;;;20.02;13.20;;;;;;;12.31;68.11;99929.78;4422822;32;20073;-76
2021/05/13 04:26:59;;;;;;;27.90;13.93;;;;;;;12.32;68.06;99930.53;4424695;32;20046;-76
2021/05/13 04:29:26;;;;;;;21.62;14.73;;;;;;;12.29;68.21;99931.47;4420897;32;20461;-75
2021/05/13 04:31:51;;;;;;;23.67;14.32;;;;;;;12.32;68.30;99934.16;4421354;32;20562;-75
2021/05/13 04:34:17;;;;;;;24.65;15.25;;;;;;;12.40;67.51;99929.00;4422209;32;20077;-75
2021/05/13 04:36:42;;;;;;;24.95;15.05;;;;;;;12.45;67.45;99931.19;4421625;32;20473;-75
2021/05/13 04:39:08;;;;;;;26.70;15.40;;;;;;;12.38;67.69;99931.47;4422344;32;20068;-76
2021/05/13 04:41:34;;;;;;;25.67;14.73;;;;;;;12.47;67.78;99928.66;4421174;32;20439;-76
2021/05/13 04:44:01;;;;;;;20.48;13.65;;;;;;;12.47;67.91;99932.28;4414856;32;20513;-76
2021/05/13 04:46:32;;;;;;;26.00;14.10;;;;;;;12.51;67.83;99929.28;4412333;32;20098;-75
2021/05/13 04:51:37;;;;;;;27.67;15.25;;;;;;;12.96;66.70;99938.50;3983442;32;15025642;-76
2021/05/13 04:54:03;;;;;;;27.30;15.50;;;;;;;12.96;66.70;99938.50;4434152;32;20084;-76
2021/05/13 04:56:30;;;;;;;26.95;14.32;;;;;;;12.64;66.94;99935.56;4434960;32;20085;-76
2021/05/13 04:58:56;;;;;;;25.70;14.50;;;;;;;12.52;67.44;99934.44;4434192;32;20108;-76
2021/05/13 05:01:22;;;;;;;27.98;15.82;;;;;;;12.44;68.02;99935.25;4429658;32;20090;-75
2021/05/13 05:03:47;;;;;;;26.08;15.65;;;;;;;12.51;68.20;99951.84;4417322;32;20104;-75
2021/05/13 05:06:15;;;;;;;25.20;15.23;;;;;;;12.50;68.00;99951.09;4419229;32;20061;-75
2021/05/13 05:08:42;;;;;;;27.65;15.68;;;;;;;12.69;67.63;99947.00;4421789;32;20155;-75
2021/05/13 05:11:08;;;;;;;23.35;15.23;;;;;;;12.72;67.42;99945.25;4423377;32;20037;-75
2021/05/13 05:13:34;;;;;;;25.67;15.82;;;;;;;12.77;67.38;99934.13;4416103;32;20440;-76
2021/05/13 05:16:00;;;;;;;25.15;15.07;;;;;;;12.78;67.18;99943.38;4418060;32;20106;-76
2021/05/13 05:18:26;;;;;;;22.15;15.15;;;;;;;12.84;67.11;99944.31;4421317;32;20083;-75
2021/05/13 05:20:53;;;;;;;24.83;15.30;;;;;;;12.81;66.73;99934.75;4421377;32;20058;-75
2021/05/13 05:23:20;;;;;;;36.92;15.68;;;;;;;12.85;67.02;99943.84;4419205;32;20034;-76
2021/05/13 05:25:45;;;;;;;28.40;15.70;;;;;;;12.85;67.18;99941.00;4418808;32;20089;-76
2021/05/13 05:28:12;;;;;;;24.50;16.02;;;;;;;12.91;66.98;99939.13;4418144;32;20106;-76
2021/05/13 05:30:39;;;;;;;25.48;15.48;;;;;;;13.02;67.10;99941.47;4421946;32;20069;-76
2021/05/13 05:33:08;;;;;;;26.48;15.65;;;;;;;13.08;66.88;99943.19;4422229;32;20038;-75
2021/05/13 05:35:35;;;;;;;27.10;15.15;;;;;;;13.14;66.76;99937.69;4418763;32;20083;-75
2021/05/13 05:38:02;;;;;;;25.80;16.35;;;;;;;13.14;66.80;99935.66;4418649;32;20089;-76
2021/05/13 05:40:28;;;;;;;23.27;14.93;;;;;;;13.08;67.13;99936.75;4417949;32;20029;-76
2021/05/13 05:42:54;;;;;;;26.33;15.85;;;;;;;13.10;66.84;99937.06;4419318;32;20453;-75
2021/05/13 05:45:22;;;;;;;25.60;15.70;;;;;;;13.14;66.93;99940.50;4416992;32;20531;-76
2021/05/13 05:47:49;;;;;;;26.10;16.58;;;;;;;13.20;66.55;99945.03;4416449;32;20018;-75
2021/05/13 05:50:16;;;;;;;24.83;14.87;;;;;;;13.31;66.59;99936.84;4415556;32;20069;-76
2021/05/13 05:52:42;;;;;;;24.08;15.90;;;;;;;13.54;65.72;99936.12;4422785;32;20104;-76
2021/05/13 05:55:08;;;;;;;23.87;14.23;;;;;;;13.65;65.15;99935.59;4421151;32;20094;-76
2021/05/13 05:57:34;;;;;;;25.08;14.85;;;;;;;13.80;64.86;99936.44;4424240;32;20104;-75
2021/05/13 05:59:59;;;;;;;24.05;14.30;;;;;;;13.87;64.41;99931.22;4418160;32;20056;-75
2021/05/13 06:02:25;;;;;;;21.55;13.90;;;;;;;13.99;63.92;99937.91;4407080;32;20046;-75
2021/05/13 06:04:52;;;;;;;20.37;14.25;;;;;;;14.08;63.51;99929.34;4409261;32;20387;-78
2021/05/13 06:07:19;;;;;;;21.83;14.38;;;;;;;14.22;63.20;99934.28;4412951;32;20434;-76
2021/05/13 06:09:45;;;;;;;24.75;14.13;;;;;;;14.28;62.70;99931.59;4408782;32;21158;-76
2021/05/13 06:12:12;;;;;;;27.45;13.68;;;;;;;14.33;62.43;99936.59;4406944;32;20542;-76
2021/05/13 06:14:37;;;;;;;24.33;12.45;;;;;;;14.39;62.39;99934.69;4408828;32;20080;-76
2021/05/13 06:17:03;;;;;;;22.52;12.98;;;;;;;14.34;62.42;99932.50;4406562;32;20042;-76
2021/05/13 06:19:29;;;;;;;19.75;12.77;;;;;;;14.11;63.27;99941.78;4409313;32;20384;-75
2021/05/13 06:21:55;;;;;;;17.77;11.93;;;;;;;14.16;63.06;99936.22;4409248;32;20064;-76
2021/05/13 06:24:20;;;;;;;18.42;12.25;;;;;;;14.35;62.36;99943.34;4406602;32;20089;-75
2021/05/13 06:27:05;;;;;;;20.60;13.13;;;;;;;14.20;62.90;99941.72;4407697;32;20030;-75
2021/05/13 06:29:31;;;;;;;24.00;12.85;;;;;;;14.25;62.58;99933.37;4410454;32;20112;-75
2021/05/13 06:31:58;;;;;;;24.15;13.73;;;;;;;14.35;62.26;99936.88;4407002;32;20066;-75
2021/05/13 06:34:26;;;;;;;30.42;13.95;;;;;;;14.52;61.90;99941.66;4409063;32;20030;-76
2021/05/13 06:36:53;;;;;;;29.17;12.48;;;;;;;14.45;61.69;99933.50;4405436;32;20153;-76
2021/05/13 06:39:20;;;;;;;18.50;11.77;;;;;;;14.53;61.20;99939.56;4404641;32;20153;-76
2021/05/13 06:41:46;;;;;;;25.88;12.15;;;;;;;14.54;61.32;99946.81;4396578;32;20073;-77
2021/05/13 06:44:12;;;;;;;27.30;12.45;;;;;;;14.46;61.87;99942.78;4403262;32;20046;-77
2021/05/13 06:46:37;;;;;;;19.02;11.05;;;;;;;14.59;61.73;99943.31;4402513;32;20068;-76
2021/05/13 06:49:03;;;;;;;20.10;11.15;;;;;;;14.55;61.21;99945.53;4400423;32;20541;-77
2021/05/13 06:51:29;;;;;;;17.33;11.30;;;;;;;14.78;60.76;99951.16;4398229;32;20100;-77
2021/05/13 06:53:55;;;;;;;18.17;10.63;;;;;;;14.82;60.76;99942.47;4403379;32;20135;-77
2021/05/13 06:56:21;;;;;;;19.15;10.57;;;;;;;15.09;60.01;99948.63;4399196;32;20513;-77
2021/05/13 06:58:48;;;;;;;16.62;10.00;;;;;;;14.84;59.85;99945.59;4405111;32;20061;-77
2021/05/13 07:01:14;;;;;;;17.65;11.20;;;;;;;14.84;60.32;99946.38;4397917;32;20386;-78
2021/05/13 07:03:40;;;;;;;15.63;10.55;;;;;;;14.76;60.60;99944.41;4398811;32;20045;-77
2021/05/13 07:06:05;;;;;;;19.40;11.00;;;;;;;14.84;60.79;99945.59;4401986;32;20470;-77
2021/05/13 07:08:31;;;;;;;18.67;10.32;;;;;;;14.79;60.93;99949.13;4401262;32;20105;-77
2021/05/13 07:10:59;;;;;;;15.80;10.20;;;;;;;15.16;60.14;99953.91;4403820;32;20116;-77
2021/05/13 07:13:24;;;;;;;17.00;10.20;;;;;;;15.38;59.47;99957.16;4398879;32;20100;-77
2021/05/13 07:15:50;;;;;;;17.90;10.45;;;;;;;15.47;58.64;99959.88;4402504;32;20105;-77
2021/05/13 07:18:17;;;;;;;20.52;11.00;;;;;;;15.56;58.61;99956.94;4401235;32;20073;-77
2021/05/13 07:20:43;;;;;;;14.70;10.20;;;;;;;15.36;59.05;99954.00;4401952;32;20103;-76
2021/05/13 07:23:10;;;;;;;17.87;10.30;;;;;;;15.39;59.60;99966.44;4395205;32;20615;-76
2021/05/13 07:25:36;;;;;;;21.95;10.23;;;;;;;15.42;59.29;99973.97;4402271;32;20104;-76
2021/05/13 07:28:03;;;;;;;19.15;11.57;;;;;;;15.46;59.38;99971.69;4398489;32;20532;-76
2021/05/13 07:30:29;;;;;;;21.08;10.90;;;;;;;15.68;58.79;99972.84;4404501;32;20521;-76
2021/05/13 07:32:55;;;;;;;18.67;10.02;;;;;;;15.79;58.35;99975.09;4402849;32;20458;-75
2021/05/13 07:35:21;;;;;;;22.62;10.40;;;;;;;15.95;57.42;99969.66;4401506;32;20124;-76
2021/05/13 07:37:48;;;;;;;21.75;10.35;;;;;;;16.15;57.22;99971.75;4399505;32;20081;-76
2021/05/13 07:40:17;;;;;;;25.65;11.20;;;;;;;16.13;57.22;99979.22;4402606;32;20363;-76
2021/05/13 07:42:42;;;;;;;24.25;12.25;;;;;;;16.46;56.51;99980.44;4399570;32;20081;-75
2021/05/13 07:45:09;;;;;;;21.23;11.18;;;;;;;16.66;55.90;99979.66;4398365;32;20152;-76
2021/05/13 07:47:38;;;;;;;18.65;10.25;;;;;;;16.52;55.78;99989.84;4398556;32;20140;-76
2021/05/13 07:52:42;;;;;;;25.37;10.50;;;;;;;17.36;53.99;99987.38;3974259;32;15029913;-76
2021/05/13 07:55:08;;;;;;;20.55;10.52;;;;;;;17.36;53.99;99987.38;4426263;32;20021;-76
2021/05/13 07:57:34;;;;;;;17.62;10.02;;;;;;;16.98;54.46;99990.62;4429157;32;21130;-76
2021/05/13 08:00:01;;;;;;;26.60;11.32;;;;;;;17.09;54.04;99993.56;4429607;32;20075;-77
2021/05/13 08:02:26;;;;;;;22.20;11.35;;;;;;;17.17;54.09;99993.91;4416985;32;20045;-76
2021/05/13 08:04:52;;;;;;;20.17;10.70;;;;;;;17.22;53.73;100001.72;4412253;32;20173;-77
2021/05/13 08:07:20;;;;;;;19.87;11.02;;;;;;;17.53;52.76;100001.78;4414226;32;20025;-76
2021/05/13 08:09:46;;;;;;;18.35;10.00;;;;;;;17.86;51.58;99994.28;4415377;32;20066;-76
2021/05/13 08:12:12;;;;;;;17.92;9.52;;;;;;;18.41;51.04;99998.81;4412912;32;20356;-76
2021/05/13 08:14:38;;;;;;;30.98;11.50;;;;;;;18.65;50.21;99999.97;4413729;32;20099;-77
2021/05/13 08:17:03;;;;;;;21.62;10.43;;;;;;;18.88;49.23;100006.53;4412003;32;20427;-77
2021/05/13 08:19:29;;;;;;;22.85;10.63;;;;;;;18.96;48.37;99996.97;4411401;32;20491;-76
2021/05/13 08:21:55;;;;;;;27.35;10.15;;;;;;;19.09;48.69;99993.63;4415291;32;21139;-77
2021/05/13 08:24:21;;;;;;;30.33;10.85;;;;;;;18.77;48.59;99992.22;4415182;32;20426;-77
2021/05/13 08:26:46;;;;;;;22.62;9.23;;;;;;;18.88;48.55;99995.91;4424761;32;20081;-77
2021/05/13 08:29:12;;;;;;;23.05;9.80;;;;;;;18.78;48.54;100000.25;4416845;32;20152;-77
2021/05/13 08:31:38;;;;;;;22.27;10.07;;;;;;;18.79;48.65;99993.28;4410892;32;20093;-77
2021/05/13 08:34:04;;;;;;;20.35;9.25;;;;;;;19.00;47.93;99991.81;4414933;32;20073;-77
2021/05/13 08:36:30;;;;;;;19.98;9.40;;;;;;;19.28;47.59;99994.72;4417149;32;20081;-80
2021/05/13 08:38:55;;;;;;;29.60;9.98;;;;;;;19.53;46.96;99990.88;4414121;32;20073;-78
2021/05/13 08:41:22;;;;;;;20.12;9.50;;;;;;;19.73;46.49;99994.25;4413291;32;20026;-81
2021/05/13 08:43:51;;;;;;;23.55;9.85;;;;;;;19.62;46.89;99999.19;4414759;32;20561;-81
2021/05/13 08:46:18;;;;;;;19.33;8.65;;;;;;;19.76;46.49;99998.91;4414601;32;20074;-81
2021/05/13 08:48:45;;;;;;;24.17;9.80;;;;;;;20.19;45.45;99995.78;4415858;32;20082;-81
2021/05/13 08:51:10;;;;;;;20.75;10.52;;;;;;;20.23;45.36;99991.34;4413628;32;20678;-80
2021/05/13 08:53:54;;;;;;;27.52;10.18;;;;;;;20.38;44.45;99993.91;4417322;32;20041;-79
2021/05/13 08:56:21;;;;;;;24.75;10.95;;;;;;;20.78;44.21;99998.97;4414349;32;20069;-80
2021/05/13 08:58:47;;;;;;;27.20;10.55;;;;;;;20.75;43.76;99983.66;4415782;32;20477;-80
2021/05/13 09:01:18;;;;;;;34.45;9.30;;;;;;;20.78;43.86;99985.44;4414567;32;20425;-80
2021/05/13 09:03:47;;;;;;;29.05;10.63;;;;;;;20.69;44.02;99979.25;4406139;32;20072;-80
2021/05/13 09:06:29;;;;;;;32.70;10.55;;;;;;;20.97;43.56;99982.78;4403209;32;20074;-76
2021/05/13 09:09:11;;;;;;;21.55;9.43;;;;;;;21.27;42.17;99983.63;4405897;32;20562;-76
2021/05/13 09:11:51;;;;;;;22.40;10.00;;;;;;;21.32;42.21;99986.44;4402860;32;20086;-76
2021/05/13 09:14:22;;;;;;;30.12;10.25;;;;;;;21.46;42.13;99987.41;4400692;32;20034;-76
2021/05/13 09:16:49;;;;;;;19.90;8.82;;;;;;;21.23;42.51;99986.00;4403504;32;20308;-75
2021/05/13 09:22:02;;;;;;;24.90;9.43;;;;;;;22.87;39.62;99984.94;3997258;31;15015941;-75
2021/05/13 09:25:04;;;;;;;18.60;9.65;;;;;;;22.87;39.62;99984.94;4451648;32;20164;-78
2021/05/13 09:32:51;;;;;;;25.23;9.18;;;;;;;24.13;37.34;99982.22;3980360;32;15024912;-76
2021/05/13 09:37:54;;;;;;;27.00;10.20;;;;;;;24.51;36.58;99983.56;3978927;32;15024254;-76
2021/05/13 09:40:31;;;;;;;22.20;10.07;;;;;;;24.51;36.58;99983.56;4429810;32;20113;-76
2021/05/13 09:43:19;;;;;;;20.45;8.52;;;;;;;24.07;37.16;99972.13;4431491;32;20071;-76
2021/05/13 09:48:42;;;;;;;17.12;9.30;;;;;;;24.50;36.14;99976.28;3978595;32;15022096;-76
2021/05/13 09:54:12;;;;;;;20.35;8.30;;;;;;;23.96;37.19;99970.22;3993117;31;15014868;-76
2021/05/13 09:56:41;;;;;;;24.90;8.45;;;;;;;23.96;37.19;99970.22;4454938;32;20037;-74
2021/05/13 09:59:28;;;;;;;24.17;8.35;;;;;;;24.24;36.41;99972.63;4451269;32;20112;-76
2021/05/13 10:01:56;;;;;;;18.12;7.28;;;;;;;24.43;35.50;99959.69;4437281;32;20049;-76
2021/05/13 10:04:22;;;;;;;18.65;7.47;;;;;;;24.81;35.13;99966.75;4435152;32;20033;-76
2021/05/13 10:06:48;;;;;;;34.60;16.80;;;;;;;24.91;34.65;99969.97;4420105;32;20128;-79
2021/05/13 10:09:15;;;;;;;12.13;5.55;;;;;;;25.31;33.54;99971.37;4437772;32;20067;-75
2021/05/13 10:11:44;;;;;;;18.08;8.65;;;;;;;25.49;32.44;99972.56;4433719;32;20501;-78
2021/05/13 10:14:12;;;;;;;18.10;6.32;;;;;;;25.88;31.22;99975.25;4433817;32;20506;-76
2021/05/13 10:16:40;;;;;;;16.80;5.22;;;;;;;25.64;31.53;99958.31;4429074;32;20156;-76
2021/05/13 10:19:12;;;;;;;19.33;6.65;;;;;;;26.15;30.60;99968.00;4432738;32;20084;-76
2021/05/13 10:21:41;;;;;;;14.90;6.70;;;;;;;26.22;30.75;99967.28;4434472;32;20497;-77
2021/05/13 10:24:08;;;;;;;18.12;5.53;;;;;;;26.33;30.62;99961.22;4434510;32;20068;-77
2021/05/13 10:34:54;;;;;;;13.25;4.43;;;;;;;25.93;30.58;99954.16;3976545;32;15022779;-77
2021/05/13 10:37:40;;;;;;;19.27;4.53;;;;;;;25.93;30.58;99954.16;4428189;32;20869;-76
2021/05/13 10:42:44;;;;;;;17.35;3.60;;;;;;;25.88;29.85;99955.06;3962535;32;15722539;-75
2021/05/13 10:48:26;;;;;;;14.38;3.97;;;;;;;26.23;29.37;99948.66;3976376;32;15029064;-74
2021/05/13 10:51:10;;;;;;;11.70;3.70;;;;;;;26.23;29.37;99948.66;4426238;32;20346;-75
2021/05/13 11:01:46;;;;;;;17.80;4.65;;;;;;;26.52;29.39;99947.28;3978166;32;15022591;-74
2021/05/13 11:12:25;;;;;;;15.38;4.03;;;;;;;25.61;30.14;99948.69;3962762;32;15027532;-74
2021/05/13 11:38:56;;;;;;;9.10;3.37;;;;;;;30.17;24.02;99935.62;3985455;31;15014768;-80
2021/05/13 11:41:22;;;;;;;10.20;3.75;;;;;;;30.17;24.02;99935.62;4438108;32;20040;-78
2021/05/13 11:43:48;;;;;;;15.18;3.72;;;;;;;29.58;23.67;99940.53;4435886;32;20132;-79
2021/05/13 11:46:20;;;;;;;13.02;3.42;;;;;;;29.57;23.74;99936.84;4433478;32;20442;-78
2021/05/13 11:48:48;;;;;;;14.73;4.40;;;;;;;28.94;24.26;99918.84;4430318;32;20088;-80
2021/05/13 11:51:17;;;;;;;16.33;4.30;;;;;;;27.92;25.71;99929.47;4436107;32;20496;-79
2021/05/13 11:53:45;;;;;;;19.08;3.53;;;;;;;27.25;27.03;99935.16;4435566;32;20128;-78
2021/05/13 11:56:13;;;;;;;17.62;3.90;;;;;;;26.54;27.29;99935.97;4438524;32;20076;-83
2021/05/13 12:06:39;;;;;;;15.55;4.30;;;;;;;23.65;35.11;99915.69;3977244;32;15038460;-74
2021/05/13 12:09:05;;;;;;;16.48;5.37;;;;;;;23.65;35.11;99915.69;4428749;32;20477;-76
2021/05/13 12:11:31;;;;;;;16.70;6.80;;;;;;;22.30;40.47;99937.41;4429434;32;20467;-74
2021/05/13 12:13:58;;;;;;;20.75;7.87;;;;;;;21.81;43.13;99932.22;4429314;32;20486;-78
2021/05/13 12:16:27;;;;;;;20.60;8.60;;;;;;;21.30;44.74;99934.69;4426829;32;20462;-77
2021/05/13 12:19:00;;;;;;;20.73;9.20;;;;;;;20.98;45.87;99939.34;4424452;32;20108;-75
2021/05/13 12:21:26;;;;;;;24.42;11.43;;;;;;;20.58;46.63;99944.97;4428617;32;20459;-77
2021/05/13 12:23:53;;;;;;;21.83;9.13;;;;;;;20.14;48.56;99940.22;4426365;32;20069;-76
2021/05/13 12:26:22;;;;;;;19.20;8.70;;;;;;;19.64;47.37;99936.66;4426949;32;20060;-76
2021/05/13 12:28:48;;;;;;;17.87;8.25;;;;;;;19.54;49.04;99932.47;4429511;32;20450;-82
2021/05/13 12:31:33;;;;;;;15.30;6.28;;;;;;;19.22;50.39;99934.81;4429886;32;20367;-78
2021/05/13 12:34:04;;;;;;;15.27;7.12;;;;;;;18.95;51.19;99931.87;4427723;32;20163;-77
2021/05/13 12:36:35;;;;;;;17.75;6.12;;;;;;;18.67;51.81;99931.84;4430388;32;20119;-78
2021/05/13 12:39:02;;;;;;;15.95;6.12;;;;;;;18.56;50.49;99934.63;4429872;32;20615;-77
2021/05/13 12:41:28;;;;;;;14.68;5.90;;;;;;;18.49;51.00;99931.50;4428331;32;20104;-78
2021/05/13 12:44:14;;;;;;;21.45;6.32;;;;;;;18.39;51.61;99933.81;4427650;32;20074;-79
2021/05/13 12:46:43;;;;;;;12.90;5.37;;;;;;;18.48;50.29;99935.66;4431884;32;20687;-79
2021/05/13 12:49:27;;;;;;;19.83;5.55;;;;;;;18.53;49.39;99932.81;4426735;32;20290;-79
2021/05/13 12:52:00;;;;;;;17.80;5.10;;;;;;;18.63;49.49;99930.53;4427735;32;20069;-80
2021/05/13 12:54:26;;;;;;;13.80;5.97;;;;;;;18.72;49.07;99933.16;4428428;32;21043;-78
2021/05/13 12:56:51;;;;;;;20.95;7.70;;;;;;;18.71;49.34;99931.56;4428272;32;20122;-79
2021/05/13 12:59:17;;;;;;;26.48;9.60;;;;;;;18.92;49.37;99921.50;4428427;32;20077;-80